Terminal Aerodrome Forecast
Issued by NWS Sterling, VA

Current Version | Previous Version | Text Only | Print | Product List | Glossary Off
Versions: 1 2 3 4 5 6 7 8 9 10 11 12 13 14 15 16 17 18 19 20 21 22 23 24 25 26 27 28

074
FTUS41 KLWX 201729
TAFIAD
TAF
KIAD 201729Z 2018/2124 27010KT P6SM BKN050
     FM202200 30007KT P6SM SCT050
     FM210600 36004KT P6SM SCT100
     FM210900 02004KT 3SM BR BKN100
     FM211200 04005KT P6SM BKN100
     FM211700 VRB03KT P6SM SCT200
     FM212200 13005KT P6SM BKN050=

USA.gov is the U.S. government's official web portal to all federal, state and local government web resources and services.